TimeEST,TemperatureF,Dew PointF,Humidity,Sea Level PressureIn,VisibilityMPH,Wind Direction,Wind SpeedMPH,Gust SpeedMPH,PrecipitationIn,Events,Conditions,WindDirDegrees,DateUTC
12:15 AM,1.4,-0.4,92,29.99,10.0,WNW,3.5,-,N/A,,Clear,290,2014-02-02 05:15:00
12:35 AM,-0.4,-5.8,78,29.99,10.0,Calm,Calm,-,N/A,,Clear,0,2014-02-02 05:35:00
12:55 AM,-0.4,-4.0,85,30.00,10.0,Calm,Calm,-,N/A,,Clear,0,2014-02-02 05:55:00
1:15 AM,-0.4,-0.4,100,30.01,10.0,Calm,Calm,-,N/A,,Clear,0,2014-02-02 06:15:00
1:35 AM,3.2,1.4,92,30.01,10.0,Calm,Calm,-,N/A,,Partly Cloudy,0,2014-02-02 06:35:00
1:55 AM,1.4,-2.2,85,30.02,10.0,Calm,Calm,-,N/A,,Mostly Cloudy,0,2014-02-02 06:55:00
2:15 AM,-0.4,-9.4,66,30.03,10.0,Calm,Calm,-,N/A,,Mostly Cloudy,0,2014-02-02 07:15:00
2:35 AM,-2.2,-4.0,92,30.03,10.0,Calm,Calm,-,N/A,,Partly Cloudy,0,2014-02-02 07:35:00
2:55 AM,-2.2,-5.8,85,30.04,10.0,West,4.6,-,N/A,,Clear,280,2014-02-02 07:55:00
3:15 AM,-2.2,-5.8,85,30.03,10.0,West,4.6,-,N/A,,Mostly Cloudy,280,2014-02-02 08:15:00
3:35 AM,-0.4,-4.0,85,30.03,10.0,West,5.8,-,N/A,,Overcast,280,2014-02-02 08:35:00
3:55 AM,-4.0,-7.6,85,30.03,10.0,West,5.8,-,N/A,,Scattered Clouds,280,2014-02-02 08:55:00
4:15 AM,-0.4,-0.4,100,30.03,10.0,West,5.8,-,N/A,,Clear,280,2014-02-02 09:15:00
4:35 AM,-2.2,-13.0,60,30.03,10.0,WNW,5.8,-,N/A,,Clear,290,2014-02-02 09:35:00
4:55 AM,-0.4,-0.4,100,30.04,10.0,WNW,4.6,-,N/A,,Scattered Clouds,290,2014-02-02 09:55:00
5:15 AM,-2.2,-11.2,66,30.05,10.0,WNW,4.6,-,N/A,,Partly Cloudy,290,2014-02-02 10:15:00
5:35 AM,-2.2,-2.2,100,30.06,10.0,Calm,Calm,-,N/A,,Clear,0,2014-02-02 10:35:00
5:55 AM,-2.2,-4.0,92,30.06,10.0,WNW,4.6,-,N/A,,Clear,290,2014-02-02 10:55:00
6:15 AM,-2.2,-7.6,78,30.07,10.0,WNW,5.8,-,N/A,,Clear,290,2014-02-02 11:15:00
6:35 AM,-0.4,-2.2,92,30.07,10.0,WNW,4.6,-,N/A,,Clear,290,2014-02-02 11:35:00
6:55 AM,-5.8,-16.6,60,30.07,10.0,WNW,4.6,-,N/A,,Clear,290,2014-02-02 11:55:00
7:15 AM,-2.2,-9999,N/A,30.08,10.0,WNW,5.8,-,N/A,,Clear,290,2014-02-02 12:15:00
7:35 AM,-2.2,-16.6,50,30.08,10.0,WNW,4.6,-,N/A,,Clear,290,2014-02-02 12:35:00
7:55 AM,-0.4,-0.4,100,30.10,10.0,WNW,4.6,-,N/A,,Clear,290,2014-02-02 12:55:00
8:15 AM,1.4,-2.2,85,30.11,10.0,WNW,4.6,-,N/A,,Clear,290,2014-02-02 13:15:00
8:35 AM,1.4,-4.0,78,30.12,10.0,WNW,4.6,-,N/A,,Clear,300,2014-02-02 13:35:00
8:55 AM,-0.4,-2.2,92,30.13,10.0,WNW,3.5,-,N/A,,Scattered Clouds,300,2014-02-02 13:55:00
9:15 AM,1.4,-4.0,78,30.14,10.0,WNW,4.6,-,N/A,,Overcast,300,2014-02-02 14:15:00
9:35 AM,6.8,6.8,100,30.16,10.0,WNW,3.5,-,N/A,,Overcast,300,2014-02-02 14:35:00
9:55 AM,8.6,6.8,92,30.16,10.0,West,4.6,-,N/A,,Overcast,280,2014-02-02 14:55:00
10:15 AM,10.4,5.0,79,30.17,10.0,WNW,5.8,-,N/A,,Overcast,300,2014-02-02 15:15:00
10:35 AM,10.4,6.8,85,30.16,10.0,WNW,8.1,-,N/A,,Overcast,290,2014-02-02 15:35:00
10:55 AM,10.4,6.8,85,30.16,10.0,WNW,9.2,-,N/A,,Overcast,300,2014-02-02 15:55:00
11:15 AM,12.2,3.2,67,30.18,10.0,WNW,9.2,-,N/A,,Overcast,300,2014-02-02 16:15:00
11:35 AM,12.2,3.2,67,30.18,10.0,West,8.1,-,N/A,,Scattered Clouds,280,2014-02-02 16:35:00
11:55 AM,12.2,3.2,67,30.18,10.0,NW,5.8,-,N/A,,Mostly Cloudy,310,2014-02-02 16:55:00
12:15 PM,12.2,1.4,62,30.18,10.0,NW,5.8,-,N/A,,Mostly Cloudy,310,2014-02-02 17:15:00
12:35 PM,14.0,3.2,62,30.17,10.0,WNW,11.5,-,N/A,,Mostly Cloudy,290,2014-02-02 17:35:00
12:55 PM,12.2,1.4,62,30.17,10.0,WNW,8.1,-,N/A,,Mostly Cloudy,300,2014-02-02 17:55:00
1:15 PM,14.0,3.2,62,30.17,10.0,West,10.4,-,N/A,,Overcast,270,2014-02-02 18:15:00
1:35 PM,14.0,1.4,57,30.16,10.0,WNW,11.5,-,N/A,,Mostly Cloudy,290,2014-02-02 18:35:00
1:55 PM,15.8,1.4,53,30.16,10.0,West,8.1,-,N/A,,Mostly Cloudy,280,2014-02-02 18:55:00
2:15 PM,15.8,3.2,58,30.16,10.0,NNW,5.8,-,N/A,,Mostly Cloudy,340,2014-02-02 19:15:00
2:35 PM,15.8,-0.4,49,30.15,10.0,WNW,8.1,-,N/A,,Mostly Cloudy,300,2014-02-02 19:35:00
2:55 PM,15.8,3.2,58,30.15,10.0,Calm,Calm,-,N/A,,Mostly Cloudy,0,2014-02-02 19:55:00
3:15 PM,15.8,3.2,58,30.15,10.0,West,3.5,-,N/A,,Mostly Cloudy,260,2014-02-02 20:15:00
3:35 PM,15.8,3.2,58,30.16,10.0,WSW,5.8,-,N/A,,Mostly Cloudy,250,2014-02-02 20:35:00
3:55 PM,15.8,3.2,58,30.17,10.0,SSE,9.2,-,N/A,,Mostly Cloudy,150,2014-02-02 20:55:00
4:15 PM,12.2,3.2,67,30.18,10.0,South,9.2,-,N/A,,Scattered Clouds,180,2014-02-02 21:15:00
4:35 PM,14.0,3.2,62,30.17,10.0,SSE,5.8,-,N/A,,Clear,160,2014-02-02 21:35:00
4:55 PM,12.2,3.2,67,30.18,10.0,South,11.5,-,N/A,,Clear,180,2014-02-02 21:55:00
5:15 PM,12.2,3.2,67,30.20,10.0,South,8.1,-,N/A,,Clear,190,2014-02-02 22:15:00
5:35 PM,10.4,1.4,67,30.20,10.0,SSW,10.4,-,N/A,,Clear,200,2014-02-02 22:35:00
5:55 PM,10.4,1.4,67,30.20,10.0,SSW,8.1,-,N/A,,Clear,210,2014-02-02 22:55:00
6:15 PM,8.6,1.4,73,30.21,10.0,SSW,8.1,-,N/A,,Clear,210,2014-02-02 23:15:00
6:35 PM,8.6,1.4,73,30.21,10.0,SSW,5.8,-,N/A,,Clear,210,2014-02-02 23:35:00
6:55 PM,6.8,1.4,79,30.21,10.0,SSW,3.5,-,N/A,,Clear,200,2014-02-02 23:55:00
7:15 PM,3.2,-2.2,78,30.21,10.0,Calm,Calm,-,N/A,,Clear,0,2014-02-03 00:15:00
7:35 PM,5.0,1.4,85,30.21,10.0,SSW,5.8,-,N/A,,Clear,200,2014-02-03 00:35:00
7:55 PM,5.0,-2.2,72,30.20,10.0,South,5.8,-,N/A,,Clear,180,2014-02-03 00:55:00
8:15 PM,5.0,-2.2,72,30.19,10.0,SSW,9.2,-,N/A,,Clear,200,2014-02-03 01:15:00
8:35 PM,3.2,-0.4,85,30.19,10.0,SSW,6.9,-,N/A,,Clear,200,2014-02-03 01:35:00
8:55 PM,3.2,-5.8,66,30.18,10.0,SSW,5.8,-,N/A,,Clear,210,2014-02-03 01:55:00
9:15 PM,3.2,-2.2,78,30.18,10.0,SW,3.5,-,N/A,,Clear,220,2014-02-03 02:15:00
9:35 PM,-0.4,-5.8,78,30.18,10.0,Calm,Calm,-,N/A,,Clear,0,2014-02-03 02:35:00
9:55 PM,1.4,-2.2,85,30.17,10.0,Calm,Calm,-,N/A,,Clear,0,2014-02-03 02:55:00
10:15 PM,-0.4,-7.6,72,30.17,10.0,Calm,Calm,-,N/A,,Clear,0,2014-02-03 03:15:00
10:35 PM,-0.4,-2.2,92,30.17,10.0,Calm,Calm,-,N/A,,Clear,0,2014-02-03 03:35:00
10:55 PM,-2.2,-11.2,66,30.17,10.0,West,3.5,-,N/A,,Clear,280,2014-02-03 03:55:00
11:15 PM,-7.6,-14.8,71,30.18,10.0,Calm,Calm,-,N/A,,Clear,0,2014-02-03 04:15:00
11:35 PM,-7.6,-9.4,92,30.18,10.0,Calm,Calm,-,N/A,,Clear,0,2014-02-03 04:35:00
11:55 PM,-7.6,-16.6,65,30.19,4.0,Calm,Calm,-,N/A,,Clear,0,2014-02-03 04:55:00